Weather, Runways
& NOTAMs

CYYZ - Toronto-Lester B. Pearson International      ATIS Currently Online:  Information C
CYYZ information C weather at 0000Z , Wind 290 at 4 ,
Visibility 15 , few clouds at 6000 few clouds at 18000
temperature 30 dew point 20 , Altimeter 2986 , Approach ILS
runway 24R , Departure runway 24R ,
Advise ATC that you have information C .
CYOW - Ottawa Macdonald-Cartier International      ATIS Currently Online:  Information 
CYOW ATIS INFO V , WEATHER AT 0000Z , WIND 110 AT 6 , VARIABLE
100 DEGREES TO 180 DEGREES , VISIBILITY 15 , FEW 5000 TCU , ,
TEMPERATURE 30 , DEW POINT 20 , , ALTIMETER 2984 , RUNWAY 07,
LANDING AND DEPARTING RUNWAY 07 , INFORM CYOW ATC ATIS V .
CYTZ - Billy Bishop Toronto City
CYTZ 090000Z AUTO 24005KT 9SM CLR 26/21 A2984 RMK SLP107 DENSITY ALT 1700FT
Suggested Runway: 26
CYXU - London International
CYXU 090000Z 27002KT 15SM FEW160 SCT260 28/21 A2990 RMK AC1CI2 SLP119 DENSITY ALT 2700FT
Suggested Runway: 33
CYHM - John C. Munro Hamilton International
CYHM 090000Z 20004KT 15SM FEW045TCU FEW110 SCT250 28/22 A2988 RMK TCU1AC2CI1 TCU TR SLP117 DENSITY ALT 2500FT
Suggested Runway: 12
CYKF - Region of Waterloo International
CYKF 090000Z AUTO 20004KT 9SM CLR 29/21 A2990 RMK SLP118 DENSITY ALT 2800FT
Suggested Runway: 26
CYAM - Sault Ste. Marie
CYAM 090000Z 28003KT 20SM FEW050 BKN210 27/17 A2987 RMK SC1CI6 SC TR CONTRAILS SLP117 DENSITY ALT 2200FT
Suggested Runway: 30
CYTR - Canadian Forces Base Trenton
CYTR 090000Z 21009KT 15SM FEW250 27/21 A2985 RMK CI1 SLP108
Suggested Runway: 24
CYOO - Toronto/Oshawa Executive
CYOO 090000Z AUTO 21008KT 9SM CLR 30/19 A2986 RMK SLP108 DENSITY ALT 2200FT
Suggested Runway: 23

NOTAMs